createdAt,value
2022-10-08T00:06:13.904Z,14.15
2022-10-08T00:12:59.362Z,12.05
2022-10-08T00:19:47.280Z,13.47
2022-10-08T00:26:41.103Z,10.80
2022-10-08T00:33:27.561Z,12.07
2022-10-08T00:40:15.968Z,12.35
2022-10-08T00:47:01.564Z,13.90
2022-10-08T00:53:47.190Z,11.10
2022-10-08T01:00:36.502Z,10.63
2022-10-08T01:07:38.030Z,14.80
2022-10-08T01:14:42.082Z,11.45
2022-10-08T01:21:44.210Z,15.13
2022-10-08T01:28:40.639Z,14.75
2022-10-08T01:35:33.635Z,12.52
2022-10-08T01:42:23.619Z,11.07
2022-10-08T01:49:17.693Z,15.18
2022-10-08T01:56:09.129Z,10.75
2022-10-08T02:02:58.643Z,12.63
2022-10-08T02:09:53.536Z,14.13
2022-10-08T02:16:48.766Z,12.18
2022-10-08T02:23:40.281Z,13.55
2022-10-08T02:30:35.874Z,10.40
2022-10-08T02:37:27.161Z,13.50
2022-10-08T02:44:19.184Z,11.30
2022-10-08T03:05:03.384Z,13.70
2022-10-08T03:11:50.289Z,11.48
2022-10-08T03:18:37.438Z,12.63
2022-10-08T03:25:26.781Z,10.85
2022-10-08T03:32:14.097Z,12.13
2022-10-08T03:39:00.767Z,12.18
2022-10-08T03:45:59.826Z,12.73
2022-10-08T03:52:46.672Z,9.98
2022-10-08T03:59:33.312Z,9.55
2022-10-08T04:06:23.236Z,9.57
2022-10-08T04:20:34.613Z,11.80
2022-10-08T04:34:07.901Z,10.75
2022-10-08T04:41:04.994Z,10.35
2022-10-08T04:47:52.916Z,9.88
2022-10-08T04:54:38.271Z,10.25
2022-10-08T05:01:24.951Z,11.63
2022-10-08T05:08:14.165Z,11.27
2022-10-08T05:14:59.533Z,15.93
2022-10-08T05:21:44.921Z,12.50
2022-10-08T05:28:33.146Z,15.25
2022-10-08T05:35:19.280Z,19.02
2022-10-08T05:42:06.512Z,12.50
2022-10-08T05:48:56.737Z,9.73
2022-10-08T05:55:42.142Z,10.75
2022-10-08T06:02:27.583Z,9.35
2022-10-08T06:09:18.237Z,8.38
2022-10-08T06:16:06.543Z,8.13
2022-10-08T06:22:51.929Z,10.20
2022-10-08T06:29:39.825Z,9.85
2022-10-08T06:36:28.008Z,8.65
2022-10-08T06:43:16.620Z,11.25
2022-10-08T06:50:04.691Z,8.48
2022-10-08T06:56:50.201Z,12.13
2022-10-08T07:03:35.759Z,9.80
2022-10-08T07:10:23.774Z,11.02
2022-10-08T07:17:09.140Z,9.77
2022-10-08T07:23:54.848Z,10.25
2022-10-08T07:30:42.785Z,11.07
2022-10-08T07:37:28.173Z,14.43
2022-10-08T07:44:15.009Z,14.98
2022-10-08T07:51:11.139Z,12.77
2022-10-08T07:57:56.909Z,12.05
2022-10-08T08:04:42.256Z,11.32
2022-10-08T08:11:30.264Z,12.60
2022-10-08T08:18:15.708Z,11.63
2022-10-08T08:25:01.058Z,9.02
2022-10-08T08:31:51.701Z,11.25
2022-10-08T08:38:38.932Z,10.02
2022-10-08T08:45:47.622Z,11.57
2022-10-08T08:52:42.161Z,11.73
2022-10-08T08:59:31.189Z,10.13
2022-10-08T09:06:22.736Z,7.85
2022-10-08T09:13:21.129Z,8.02
2022-10-08T09:20:08.528Z,8.15
2022-10-08T09:26:58.981Z,8.50
2022-10-08T09:33:49.219Z,8.30
2022-10-08T09:40:36.190Z,16.20
2022-10-08T09:47:25.015Z,11.35
2022-10-08T09:54:18.086Z,11.27
2022-10-08T10:01:09.244Z,13.38
2022-10-08T10:07:55.651Z,8.68
2022-10-08T10:14:49.506Z,4.30
2022-10-08T10:21:43.435Z,5.00
2022-10-08T10:28:42.405Z,5.15
2022-10-08T10:35:33.225Z,5.55
2022-10-08T10:42:24.076Z,5.03
2022-10-08T10:49:17.720Z,5.35
2022-10-08T10:56:13.444Z,5.13
2022-10-08T11:03:09.833Z,5.83
2022-10-08T11:10:04.377Z,5.50
2022-10-08T11:17:06.169Z,8.10
2022-10-08T11:24:19.681Z,6.50
2022-10-08T11:31:16.826Z,7.15
2022-10-08T11:38:13.642Z,6.85
2022-10-08T11:45:16.578Z,6.78
2022-10-08T11:52:17.585Z,5.97
2022-10-08T11:59:12.686Z,6.78
2022-10-08T12:06:01.879Z,6.30
2022-10-08T12:13:05.065Z,5.05
2022-10-08T12:20:27.052Z,5.75
2022-10-08T12:27:37.904Z,4.55
2022-10-08T12:34:24.536Z,6.68
2022-10-08T12:41:25.400Z,8.20
2022-10-08T12:48:20.096Z,25.60
2022-10-08T12:55:08.737Z,7.25
2022-10-08T13:01:58.185Z,5.88
2022-10-08T13:08:45.006Z,5.13
2022-10-08T13:15:31.086Z,4.75
2022-10-08T13:22:30.034Z,6.03
2022-10-08T13:29:33.705Z,4.68
2022-10-08T13:36:25.303Z,11.02
2022-10-08T13:43:14.213Z,5.65
2022-10-08T13:50:03.247Z,7.47
2022-10-08T13:56:48.571Z,5.60
2022-10-08T14:03:36.521Z,8.27
2022-10-08T14:10:22.292Z,4.32
2022-10-08T14:17:07.681Z,4.80
2022-10-08T14:23:55.608Z,4.13
2022-10-08T14:30:40.974Z,9.65
2022-10-08T14:37:26.333Z,4.40
2022-10-08T14:44:16.658Z,7.13
2022-10-08T14:51:02.513Z,5.97
2022-10-08T14:57:48.164Z,8.38
2022-10-08T15:04:36.149Z,6.90
2022-10-08T15:11:21.493Z,4.30
2022-10-08T15:18:06.972Z,4.73
2022-10-08T15:24:55.117Z,4.13
2022-10-08T15:31:40.761Z,4.35
2022-10-08T15:38:26.629Z,5.15
2022-10-08T15:45:14.773Z,5.28
2022-10-08T15:52:00.127Z,5.93
2022-10-08T16:05:39.462Z,4.32
2022-10-08T16:12:24.861Z,8.45
2022-10-08T16:19:16.155Z,5.93
2022-10-08T16:26:06.549Z,4.00
2022-10-08T16:32:51.923Z,7.43
2022-10-08T16:39:37.313Z,5.00
2022-10-08T16:46:29.253Z,4.70
2022-10-08T16:53:14.793Z,6.93
2022-10-08T17:00:00.367Z,7.10
2022-10-08T17:06:51.083Z,8.43
2022-10-08T17:13:37.041Z,11.88
2022-10-08T17:20:22.409Z,12.43
2022-10-08T17:27:11.824Z,11.93
2022-10-08T17:33:57.321Z,12.25
2022-10-08T17:40:43.088Z,13.57
2022-10-08T17:47:31.057Z,11.27
2022-10-08T17:54:20.015Z,8.13
2022-10-08T18:01:10.365Z,10.32
2022-10-08T18:07:58.392Z,13.70
2022-10-08T18:14:43.989Z,8.32
2022-10-08T18:21:29.759Z,11.13
2022-10-08T18:28:19.909Z,9.65
2022-10-08T18:35:05.460Z,11.32
2022-10-08T18:41:52.621Z,13.63
2022-10-08T18:48:41.141Z,10.23
2022-10-08T18:55:26.453Z,7.90
2022-10-08T19:02:13.581Z,12.20
2022-10-08T19:09:03.292Z,8.27
2022-10-08T19:15:48.696Z,7.55
2022-10-08T19:22:34.067Z,13.13
2022-10-08T19:29:25.349Z,10.77
2022-10-08T19:36:11.899Z,13.82
2022-10-08T19:42:57.797Z,17.95
2022-10-08T19:49:45.949Z,17.90
2022-10-08T19:56:32.955Z,17.08
2022-10-08T20:03:18.328Z,11.13
2022-10-08T20:10:06.412Z,13.55
2022-10-08T20:16:52.014Z,10.18
2022-10-08T20:23:40.149Z,11.87
2022-10-08T20:30:28.376Z,10.45
2022-10-08T20:37:13.852Z,12.32
2022-10-08T20:44:00.543Z,12.95
2022-10-08T20:50:48.532Z,11.63
2022-10-08T20:57:33.908Z,11.77
2022-10-08T21:04:19.389Z,11.70
2022-10-08T21:11:09.360Z,12.35
2022-10-08T21:17:54.737Z,13.60
2022-10-08T21:24:40.196Z,12.00
2022-10-08T21:31:29.881Z,12.50
2022-10-08T21:38:15.246Z,11.50
2022-10-08T21:45:01.060Z,9.90
2022-10-08T21:51:49.172Z,9.43
2022-10-08T21:58:39.554Z,8.98
2022-10-08T22:05:29.154Z,8.80
2022-10-08T22:12:17.804Z,10.20
2022-10-08T22:19:04.114Z,9.52
2022-10-08T22:25:56.497Z,11.38
2022-10-08T22:32:44.461Z,12.15
2022-10-08T22:39:29.949Z,10.07
2022-10-08T22:46:20.144Z,9.82
2022-10-08T22:53:08.062Z,9.43
2022-10-08T22:59:53.375Z,11.32
2022-10-08T23:06:38.755Z,8.95
2022-10-08T23:13:27.393Z,8.48
2022-10-08T23:20:13.121Z,11.07
2022-10-08T23:26:58.485Z,9.48
2022-10-08T23:33:48.990Z,9.98
2022-10-08T23:40:34.435Z,15.63
2022-10-08T23:47:19.811Z,15.63
2022-10-08T23:54:08.329Z,16.60
